Estación Meteorológica Peña el Pijo (Robertgarden) [ 11/19/17 19:01:23 CET ]

Fecha Hora Presion(HPa) Temp (°C) Humedad % Rocio (°C) Viento ( m/s) Direccion Lluvia 1Hora(mm) Lluvia 24H(mm) LLuvia Total(mm)
2017-Jul-11 01:01:47 1009.800 17.4 63 10.3         1437.96
2017-Jul-11 02:01:52 1009.600 16.1 66 9.8         1437.96
2017-Jul-11 03:01:31 1009.700 15.5 68 9.6         1437.96
2017-Jul-11 04:01:28 1009.700 14.6 71 9.4         1437.96
2017-Jul-11 05:01:25 1009.600 13.8 74 9.2         1437.96
2017-Jul-11 06:01:27 1009.600 13.3 76 9.1         1437.96
2017-Jul-11 07:01:43 1009.900 12.6 77 8.6         1437.96
2017-Jul-11 08:01:41 1010.100 14.8 77 10.8         1437.96
2017-Jul-11 09:01:44 1010.200 22.9 60 14.7         1437.96
2017-Jul-11 10:01:46 1010.600 28.3 43 14.5         1437.96
2017-Jul-11 11:35:16 1010.900 33.2 30 13.4 1.2 S     1437.96
2017-Jul-11 12:02:08 1011.000 34.9 27 12.9 0.6 S     1437.96
2017-Jul-11 13:01:51 1010.900 36.4 25 13.0         1437.96
2017-Jul-11 14:01:49 1010.600 36.3 26 13.5         1437.96
2017-Jul-11 15:01:26 1010.400 37.9 24 13.6         1437.96
2017-Jul-11 16:01:37 1009.900 40.0 22 14.1         1437.96
2017-Jul-11 17:01:49 1009.700 38.4 22 12.8         1437.96
2017-Jul-11 18:01:49 1009.700 39.5 21 13.0         1437.96
2017-Jul-11 19:01:46 1009.700 37.1 23 12.3         1437.96
2017-Jul-11 20:01:37 1010.300 34.1 27 12.2         1437.96
2017-Jul-11 21:01:53 1010.800 29.8 35 12.6         1437.96
2017-Jul-11 22:01:36 1011.800 26.9 43 13.2         1437.96
2017-Jul-11 23:01:57 1012.700 22.9 52 12.5         1437.96

Temperatura Máxima:40°    Temperatura Mínima:12°
Presión Máxima:1012.700 Hpa    Presión Mínima:1009.600 Hpa


Volver